»·PEaware :: N132KT O26-KAPV

N132KT :: O26-KAPV

FLIGHT INFORMATION

Flight Status: Arrived
Operator: Privately registered:
United States
More flights under this callsign
Pilot: Keith S. (1)
Aircraft: BEECH AIRCRAFT BARON
(BE58)
More flights by this aircraft type
Origin: O26 Lone Pine
United States
Destination: KAPV Apple Valley
United States
More flights between these airports :: More routes between these airports
Route:
File this flight plan on PilotEdge
Remarks:
Altitude:
(Current/Filed)
7,500ft
Speed:
(Current/Filed)
165kts
Departed: 18-Jun-19 12:52 PM
Arrived: 18-Jun-19 01:49 PM
Distance/Time
Traveled:
128nm/0:56
Distance/Time
To Go:
Arrived

Flight Plot

Page will automatically refresh every two minutes.

Flight plan parsing failed; only flown route is shown


Map Options




Map Legend


Flown Route
Filed Route
Departure Airport
Arrival Airport
Navaid (VOR, NDB)
Fix

Horizontal Profiles

Position Reports

Time Latitude Longitude Heading Altitude Ground
Speed
18-Jun-19 12:44 36.590199 -118.055860 270 3703ft 0kts
18-Jun-19 12:45 36.590199 -118.055860 270 3703ft 0kts
18-Jun-19 12:46 36.590199 -118.055860 270 3703ft 0kts
18-Jun-19 12:47 36.590321 -118.056001 40 3703ft 5kts
18-Jun-19 12:48 36.590433 -118.052646 93 3703ft 14kts
18-Jun-19 12:49 36.591839 -118.046940 356 3703ft 20kts
18-Jun-19 12:50 36.593203 -118.046492 181 3703ft 23kts
18-Jun-19 12:51 36.561475 -118.043673 173 4108ft 144kts
18-Jun-19 12:52 36.519143 -118.037718 168 4866ft 158kts
18-Jun-19 12:53 36.475359 -118.027531 166 5731ft 160kts
18-Jun-19 12:54 36.431526 -118.016849 165 6567ft 161kts
18-Jun-19 12:55 36.387537 -118.006088 165 7372ft 161kts
18-Jun-19 12:56 36.339681 -117.994396 166 7428ft 183kts
18-Jun-19 12:57 36.289502 -117.982155 166 7427ft 183kts
18-Jun-19 12:58 36.239234 -117.969898 166 7427ft 184kts
18-Jun-19 12:59 36.189022 -117.957670 166 7427ft 184kts
18-Jun-19 13:00 36.138751 -117.945445 166 7427ft 184kts
18-Jun-19 13:01 36.088547 -117.933269 166 7427ft 184kts
18-Jun-19 13:02 36.038184 -117.921052 166 7428ft 184kts
18-Jun-19 13:03 35.987396 -117.910916 174 7429ft 185kts
18-Jun-19 13:04 35.935864 -117.907860 175 7428ft 185kts
18-Jun-19 13:06 35.885327 -117.904875 175 7425ft 185kts
18-Jun-19 13:07 35.835194 -117.894381 159 7426ft 182kts
18-Jun-19 13:08 35.786408 -117.876194 160 7416ft 181kts
18-Jun-19 13:09 35.738247 -117.858558 160 7416ft 179kts
18-Jun-19 13:10 35.690452 -117.841089 160 7417ft 179kts
18-Jun-19 13:11 35.641542 -117.839145 199 7418ft 184kts
18-Jun-19 13:12 35.594220 -117.864302 201 7417ft 185kts
18-Jun-19 13:13 35.547060 -117.889693 201 7417ft 185kts
18-Jun-19 13:14 35.499817 -117.915094 201 7418ft 185kts
18-Jun-19 13:15 35.452548 -117.940477 202 7423ft 185kts
18-Jun-19 13:16 35.405103 -117.965919 202 7430ft 185kts
18-Jun-19 13:17 35.357646 -117.991324 202 7439ft 185kts
18-Jun-19 13:18 35.310253 -118.016706 202 7443ft 186kts
18-Jun-19 13:19 35.262509 -118.042242 202 7448ft 186kts
18-Jun-19 13:20 35.214994 -118.067546 203 7449ft 186kts
18-Jun-19 13:21 35.167428 -118.092884 203 7461ft 186kts
18-Jun-19 13:22 35.119990 -118.118137 203 7470ft 186kts
18-Jun-19 13:23 35.072020 -118.143598 204 7482ft 187kts
18-Jun-19 13:23 35.029540 -118.143810 170 7482ft 185kts
18-Jun-19 13:25 34.969854 -118.132367 168 7467ft 185kts
18-Jun-19 13:26 34.918795 -118.122023 168 7458ft 185kts
18-Jun-19 13:26 34.879470 -118.114041 168 7448ft 185kts
18-Jun-19 13:27 34.828806 -118.103747 167 7450ft 183kts
18-Jun-19 13:29 34.770584 -118.091948 167 7447ft 179kts
18-Jun-19 13:29 34.729713 -118.083666 167 7446ft 177kts
18-Jun-19 13:30 34.681137 -118.073835 167 7444ft 175kts
18-Jun-19 13:31 34.637382 -118.055379 112 7453ft 166kts
18-Jun-19 13:32 34.628451 -118.000243 95 7439ft 167kts
18-Jun-19 13:33 34.624257 -117.943765 93 7435ft 167kts
18-Jun-19 13:34 34.620686 -117.887407 93 7431ft 167kts
18-Jun-19 13:35 34.617176 -117.831059 93 7428ft 167kts
18-Jun-19 13:36 34.613653 -117.774768 92 7437ft 167kts
18-Jun-19 13:37 34.610092 -117.718225 92 7445ft 167kts
18-Jun-19 13:38 34.606510 -117.661639 92 7453ft 168kts
18-Jun-19 13:39 34.602895 -117.604981 92 7461ft 168kts
18-Jun-19 13:40 34.599246 -117.548206 92 7463ft 168kts
18-Jun-19 13:41 34.595562 -117.491321 92 7463ft 168kts
18-Jun-19 13:42 34.591852 -117.434431 92 7463ft 168kts
18-Jun-19 13:43 34.588113 -117.377511 92 7463ft 168kts
18-Jun-19 13:44 34.584261 -117.319291 93 7168ft 182kts
18-Jun-19 13:45 34.580057 -117.256315 93 6435ft 188kts
18-Jun-19 13:46 34.563071 -117.202442 188 4533ft 199kts
18-Jun-19 13:47 34.565294 -117.190270 13 3137ft 106kts
18-Jun-19 13:48 34.579954 -117.186594 357 3006ft 11kts
18-Jun-19 13:49 34.580098 -117.186799 269 3006ft 0kts

Navigation Log

Ident Type
Flight plan parsing failed, navigation log unavailable